Latest Weather Observations for Nowra

IDN60901

Issued at 2:21 pm EDT Saturday 10 December 2022 (issued every 10 minutes, with the page automatically refreshed every 10 minutes)

About weather observations | Map of Canberra area stations | Latest observations for Canberra area | Other Formats
Station Details ID: 068072 Name: NOWRA RAN AIR STATION AWS Lat: -34.95 Lon: 150.54 Height: 109.0 m
Data from the previous 72 hours. | See also: Recent months at Nowra
Date/Time
EDT
Temp
°C
App
Temp
°C
Dew
Point
°C
Rel
Hum
%
Delta-T
°C
Wind Press
QNH
hPa
Press
MSL
hPa
Rain since
9am
mm
Dir  Spd
km/h
Gust
km/h
Spd
kts
Gust
kts
10/02:00pm 20.1 16.7 9.1 49 5.8 E 17 24 9 13 1016.6 1016.2 0.0
10/01:30pm 20.5 16.6 8.5 46 6.3 E 19 30 10 16 1016.7 1016.3 0.0
10/01:00pm 21.2 18.2 9.1 46 6.5 NE 15 33 8 18 1017.0 1016.7 0.0
10/12:30pm 19.5 16.8 7.3 45 6.2 E 11 20 6 11 1017.3 1017.0 0.0
10/12:00pm 20.0 18.4 8.0 46 6.2 SE 6 17 3 9 1017.5 1017.2 0.0
10/11:30am 18.8 16.1 7.3 47 5.8 ESE 11 17 6 9 1017.9 1017.6 0.0
10/11:00am 19.6 16.3 6.4 42 6.6 NE 13 20 7 11 1017.9 1017.6 0.0
10/10:30am 19.0 15.9 5.5 41 6.6 ENE 11 19 6 10 1018.1 1017.8 0.0
10/10:00am 18.4 16.2 6.3 45 6.0 E 7 20 4 11 1018.5 1018.2 0.0
10/09:30am 18.0 15.9 6.5 47 5.7 ESE 7 13 4 7 1018.8 1018.5 0.0
10/09:00am 18.2 16.3 7.6 50 5.4 E 7 15 4 8 1018.9 1018.6 0.0
10/08:30am 16.6 14.3 5.9 49 5.2 SW 7 11 4 6 1019.0 1018.7 0.0
10/08:00am 16.2 13.2 5.8 50 5.0 SSW 11 17 6 9 1018.6 1018.3 0.0
10/07:30am 15.5 12.4 5.4 51 4.8 SSW 11 15 6 8 1018.3 1018.0 0.0
10/07:00am 14.2 11.5 5.8 57 4.0 SW 9 13 5 7 1017.9 1017.6 0.0
10/06:30am 11.6 9.6 7.1 74 2.2 WSW 7 9 4 5 1017.5 1017.2 0.0
10/06:00am 10.2 7.6 6.0 75 1.9 WSW 9 11 5 6 1017.4 1017.1 0.0
10/05:30am 9.3 6.1 5.3 76 1.8 SW 11 13 6 7 1017.0 1016.7 0.0
10/05:00am 10.8 7.7 5.6 70 2.4 SW 11 13 6 7 1016.7 1016.3 0.0
10/04:30am 11.3 8.8 6.6 73 2.2 SW 9 11 5 6 1016.6 1016.2 0.0
10/04:00am 12.9 10.0 6.7 66 3.0 SSW 11 11 6 6 1016.6 1016.2 0.0
10/03:30am 13.2 11.5 7.4 68 2.8 SSW 6 9 3 5 1016.8 1016.4 0.0
10/03:00am 13.9 13.7 9.1 73 2.4 CALM 0 0 0 0 1017.0 1016.7 0.0
10/02:30am 14.0 12.5 8.4 69 2.8 W 6 6 3 3 1017.3 1017.0 0.0
10/02:00am 14.4 13.9 7.7 64 3.3 CALM 0 0 0 0 1017.4 1017.1 0.0
10/01:30am 14.5 12.8 7.5 63 3.5 SSE 6 9 3 5 1017.7 1017.4 0.0
10/01:00am 14.7 11.7 7.5 62 3.6 SE 13 19 7 10 1017.9 1017.6 0.0
10/12:30am 14.8 11.9 6.6 58 4.0 SSE 11 15 6 8 1017.9 1017.6 0.0
10/12:00am 14.8 12.4 6.9 59 3.9 S 9 11 5 6 1017.9 1017.6 0.0
 
Date/Time
EDT
Temp
°C
App
Temp
°C
Dew
Point
°C
Rel
Hum
%
Delta-T
°C
Wind Press
QNH
hPa
Press
MSL
hPa
Rain since
9am
mm
Dir  Spd
km/h
Gust
km/h
Spd
kts
Gust
kts
09/11:30pm 14.9 10.9 6.5 57 4.1 SSE 17 22 9 12 1018.0 1017.7 0.0
09/11:00pm 14.8 10.8 8.1 64 3.4 S 19 30 10 16 1018.0 1017.7 0.0
09/10:30pm 14.9 12.1 8.4 65 3.3 SSE 13 24 7 13 1017.7 1017.4 0.0
09/10:00pm 15.0 12.2 8.5 65 3.3 SSE 13 19 7 10 1017.6 1017.3 0.0
09/09:30pm 14.6 12.3 9.0 69 2.9 SSE 11 17 6 9 1017.3 1017.0 0.0
09/09:00pm 14.8 12.8 8.7 67 3.1 SSE 9 13 5 7 1017.0 1016.7 0.0
09/08:30pm 14.2 10.6 10.0 76 2.2 SE 19 26 10 14 1016.7 1016.3 0.0
09/08:00pm 15.5 12.7 8.7 64 3.5 SE 13 20 7 11 1016.3 1015.9 0.0
09/07:30pm 15.7 12.1 8.4 62 3.7 SE 17 22 9 12 1015.8 1015.4 0.0
09/07:00pm 16.2 11.5 7.9 58 4.2 SE 22 32 12 17 1015.3 1014.9 0.0
09/06:30pm 17.1 11.6 7.5 53 4.8 SE 26 35 14 19 1014.7 1014.3 0.0
09/06:00pm 16.8 12.5 7.7 55 4.6 SE 20 30 11 16 1014.3 1013.9 0.0
09/05:30pm 17.9 12.3 7.0 49 5.5 SSE 26 33 14 18 1013.8 1013.4 0.0
09/05:00pm 18.7 12.7 7.2 47 5.8 SE 28 41 15 22 1013.5 1013.1 0.0
09/04:30pm 18.4 12.0 5.3 42 6.4 SE 28 35 15 19 1013.4 1013.0 0.0
09/04:00pm 19.2 13.1 4.6 38 7.1 SSE 26 35 14 19 1013.2 1012.8 0.0
09/03:30pm 19.5 13.9 5.2 39 7.0 SE 24 33 13 18 1013.3 1012.9 0.0
09/03:00pm 19.5 12.9 4.0 36 7.4 SSE 28 35 15 19 1013.3 1012.9 0.0
09/02:30pm 19.2 13.0 4.2 37 7.2 SSE 26 35 14 19 1013.4 1013.0 0.0
09/02:00pm 19.6 13.8 4.5 37 7.3 SE 24 35 13 19 1013.4 1013.0 0.0
09/01:30pm 19.4 13.7 4.7 38 7.1 SE 24 35 13 19 1013.5 1013.1 0.0
09/01:00pm 19.8 14.8 4.7 37 7.3 ESE 20 30 11 16 1013.6 1013.2 0.0
09/12:30pm 18.8 13.1 2.6 34 7.5 SE 22 32 12 17 1013.9 1013.5 0.0
09/12:00pm 19.3 13.7 3.5 35 7.5 SE 22 32 12 17 1013.9 1013.5 0.0
09/11:30am 18.4 13.6 0.5 30 7.9 S 15 28 8 15 1013.9 1013.5 0.0
09/11:00am 17.7 13.4 0.8 32 7.5 SSE 13 28 7 15 1014.1 1013.7 0.0
09/10:30am 18.3 13.9 2.6 35 7.2 SSE 15 24 8 13 1014.2 1013.8 0.0
09/10:00am 16.1 10.5 1.4 37 6.5 S 20 30 11 16 1014.5 1014.1 0.0
09/09:30am 16.8 10.8 0.9 34 7.0 SSE 22 30 12 16 1014.5 1014.1 0.0
09/09:00am 16.0 11.7 3.4 43 5.8 S 15 20 8 11 1014.7 1014.3 0.0
09/08:30am 15.2 10.9 3.0 44 5.5 SSE 15 19 8 10 1014.4 1014.0 0.0
09/08:00am 16.0 12.1 3.4 43 5.8 SW 13 17 7 9 1014.1 1013.7 0.0
09/07:30am 14.2 10.2 3.1 47 5.0 SSW 13 17 7 9 1013.8 1013.4 0.0
09/07:00am 12.2 9.5 3.9 57 3.7 SSW 7 9 4 5 1013.5 1013.1 0.0
09/06:30am 11.7 9.2 4.7 62 3.2 S 7 9 4 5 1013.3 1012.9 0.0
09/06:00am 9.4 6.1 4.4 71 2.2 SW 11 13 6 7 1013.2 1012.8 0.0
09/05:30am 10.1 6.8 4.5 68 2.5 SSW 11 13 6 7 1012.8 1012.4 0.0
09/05:00am 11.2 7.5 4.7 64 3.0 SSW 13 17 7 9 1012.3 1012.0 0.0
09/04:30am 11.7 8.8 4.9 63 3.1 SW 9 11 5 6 1012.3 1012.0 0.0
09/04:00am 11.6 8.5 5.5 66 2.8 SW 11 15 6 8 1012.1 1011.8 0.0
09/03:30am 11.9 8.9 6.2 68 2.7 SSW 11 13 6 7 1012.1 1011.8 0.0
09/03:00am 12.3 10.0 5.5 63 3.2 SSW 7 9 4 5 1012.1 1011.8 0.0
09/02:30am 13.0 11.6 5.7 61 3.4 SW 2 7 1 4 1012.1 1011.8 0.0
09/02:00am 12.9 10.8 6.0 63 3.3 SW 6 9 3 5 1012.3 1012.0 0.0
09/01:30am 13.3 10.7 5.9 61 3.5 SSW 9 11 5 6 1012.4 1012.1 0.0
09/01:00am 13.4 9.6 5.8 60 3.6 S 15 20 8 11 1012.5 1012.2 0.0
09/12:30am 14.1 11.1 6.0 58 3.9 S 11 15 6 8 1012.6 1012.3 0.0
09/12:00am 14.7 11.8 6.3 57 4.1 S 11 30 6 16 1012.8 1012.4 0.0
 
Date/Time
EDT
Temp
°C
App
Temp
°C
Dew
Point
°C
Rel
Hum
%
Delta-T
°C
Wind Press
QNH
hPa
Press
MSL
hPa
Rain since
9am
mm
Dir  Spd
km/h
Gust
km/h
Spd
kts
Gust
kts
08/11:30pm 14.4 12.0 7.2 62 3.5 S 9 11 5 6 1012.5 1012.2 0.0
08/11:00pm 14.7 12.9 7.0 60 3.8 SSE 6 15 3 8 1012.2 1011.9 0.0
08/10:30pm 14.3 13.7 7.4 63 3.4 CALM 0 9 0 5 1012.0 1011.7 0.0
08/10:00pm 14.1 13.1 7.2 63 3.4 WSW 2 13 1 7 1011.7 1011.4 0.0
08/09:30pm 14.9 12.4 6.5 57 4.1 SSE 9 19 5 10 1011.3 1011.0 0.0
08/09:00pm 14.6 13.0 6.2 57 4.1 SSE 4 9 2 5 1010.9 1010.6 0.0
08/08:30pm 15.3 12.7 6.1 54 4.5 SSE 9 15 5 8 1010.4 1010.1 0.0
08/08:00pm 15.7 12.5 5.3 50 5.0 SSE 11 20 6 11 1010.0 1009.7 0.0
08/07:30pm 16.8 12.4 4.5 44 5.8 SSE 17 22 9 12 1009.5 1009.2 0.0
08/07:00pm 17.5 12.3 5.4 45 5.9 SE 22 32 12 17 1009.0 1008.7 0.0
08/06:30pm 18.2 12.8 4.7 41 6.5 SE 22 30 12 16 1008.4 1008.0 0.0
08/06:00pm 18.6 12.8 4.4 39 6.8 SE 24 32 13 17 1007.8 1007.4 0.0
08/05:30pm 18.5 13.6 3.9 38 6.9 SSE 19 28 10 15 1007.5 1007.1 0.0
08/05:00pm 19.8 14.9 3.9 35 7.6 SE 19 28 10 15 1007.1 1006.7 0.0
08/04:30pm 18.0 14.0 2.7 36 7.1 ESE 13 28 7 15 1007.2 1006.8 0.0
08/04:00pm 17.9 13.0 4.1 40 6.6 SE 19 28 10 15 1007.0 1006.6 0.0
08/03:30pm 17.3 12.1 3.6 40 6.4 SSE 20 26 11 14 1007.0 1006.6 0.0
08/03:00pm 17.8 12.7 2.9 37 6.9 S 19 26 10 14 1006.8 1006.4 0.0
08/02:30pm 18.3 12.9 2.2 34 7.4 SSE 20 30 11 16 1006.8 1006.4 0.0
08/02:00pm 17.4 12.3 3.3 39 6.6 SSE 19 24 10 13 1006.6 1006.2 0.0
08/01:30pm 18.4 13.3 4.2 39 6.8 SSE 20 28 11 15 1006.4 1006.0 0.0
08/01:00pm 19.0 14.8 5.5 41 6.7 S 17 26 9 14 1006.2 1005.8 0.0
08/12:30pm 18.9 16.5 8.6 51 5.4 SSE 11 17 6 9 1006.1 1005.7 0.0
08/12:00pm 18.1 15.3 8.4 53 5.0 SE 13 19 7 10 1006.0 1005.6 0.0
08/11:30am 18.2 14.1 8.5 53 5.0 SE 20 28 11 15 1005.7 1005.3 0.0
08/11:00am 19.1 17.0 8.1 49 5.7 ENE 9 17 5 9 1005.7 1005.3 0.0
08/10:30am 19.5 17.1 8.5 49 5.7 E 11 19 6 10 1005.6 1005.2 0.0
08/10:00am 17.6 15.3 7.4 51 5.2 E 9 17 5 9 1005.6 1005.2 0.0
08/09:30am 18.9 16.9 8.8 52 5.3 ESE 9 17 5 9 1005.8 1005.4 0.0
08/09:00am 17.8 15.3 8.4 54 4.9 SE 11 15 6 8 1005.8 1005.4 0.0
08/08:30am 16.7 12.8 8.7 59 4.1 SE 19 24 10 13 1005.8 1005.4 0.0
08/08:00am 15.2 11.4 9.8 70 2.8 SE 20 28 11 15 1005.6 1005.2 0.0
08/07:30am 15.5 13.3 10.9 74 2.5 SSE 13 19 7 10 1005.3 1004.9 0.0
08/07:00am 14.7 12.7 11.5 81 1.7 S 13 20 7 11 1005.1 1004.7 0.0
08/06:30am 14.5 13.5 12.2 86 1.3 S 9 15 5 8 1004.4 1004.0 0.0
08/06:00am 14.3 11.8 12.3 88 1.1 S 17 22 9 12 1004.0 1003.6 0.0
08/05:30am 14.2 11.8 12.6 90 0.9 S 17 22 9 12 1003.7 1003.3 0.0
08/05:28am 14.2 11.8 12.6 90 0.9 S 17 22 9 12 1003.7 1003.3 0.0
08/05:00am 14.7 12.0 13.4 92 0.7 SSE 20 26 11 14 1003.2 1002.8 0.0
08/04:38am 15.4 13.2 14.8 96 0.3 S 20 26 11 14 1002.9 1002.5 0.0
08/04:30am 15.5 13.6 15.3 99 0.1 S 19 24 10 13 1002.5 1002.2 0.0
08/04:00am 15.1 13.1 14.9 99 0.1 S 19 26 10 14 1002.3 1002.0 0.0
08/03:30am 15.4 14.3 15.2 99 0.1 S 15 22 8 12 1002.2 1001.9 0.0
08/03:00am 15.6 14.8 15.0 96 0.3 SSE 13 19 7 10 1002.1 1001.8 0.0
08/02:30am 15.9 15.5 15.1 95 0.5 SE 11 13 6 7 1001.8 1001.5 0.0
08/02:00am 17.0 15.1 13.1 78 2.2 SE 15 20 8 11 1001.8 1001.5 0.0
08/01:30am 19.7 16.4 11.7 60 4.4 W 20 35 11 19 1001.6 1001.3 0.0
08/01:00am 20.0 15.5 11.5 58 4.7 WNW 26 41 14 22 1001.6 1001.3 0.0
08/12:30am 19.6 14.8 11.6 60 4.4 W 28 43 15 23 1001.9 1001.6 0.0
08/12:08am 19.8 13.0 11.8 60 4.5 WNW 39 57 21 31 1001.0 1000.7 0.0
08/12:00am 19.8 13.7 11.8 60 4.5 WNW 35 52 19 28 1000.9 1000.6 0.0
 
Date/Time
EDT
Temp
°C
App
Temp
°C
Dew
Point
°C
Rel
Hum
%
Delta-T
°C
Wind Press
QNH
hPa
Press
MSL
hPa
Rain since
9am
mm
Dir  Spd
km/h
Gust
km/h
Spd
kts
Gust
kts
07/11:30pm 19.6 14.0 11.6 60 4.4 WNW 32 50 17 27 1000.9 1000.6 0.0
07/11:13pm 19.7 14.9 11.5 59 4.5 WNW 28 50 15 27 1000.9 1000.6 0.0
07/11:00pm 19.7 15.2 11.5 59 4.6 WNW 26 39 14 21 1001.0 1000.7 0.0
07/10:30pm 19.6 16.2 11.4 59 4.5 WNW 20 32 11 17 1000.9 1000.6 0.0
07/10:00pm 19.8 16.4 10.5 55 5.1 WNW 19 32 10 17 1000.9 1000.6 0.0
07/09:30pm 20.3 17.1 9.8 51 5.6 NW 17 24 9 13 1000.6 1000.3 0.0
07/09:00pm 21.0 17.9 8.9 46 6.5 NNW 15 20 8 11 1000.4 1000.1 0.0
07/08:30pm 21.8 16.8 6.5 37 7.8 NW 22 41 12 22 1000.7 1000.4 0.0
07/08:00pm 22.6 17.0 5.5 33 8.7 NW 24 37 13 20 1000.8 1000.5 0.0
07/07:30pm 23.1 17.5 5.5 32 8.9 NW 24 32 13 17 1000.8 1000.5 0.0
07/07:00pm 23.1 18.4 6.0 33 8.8 NW 20 28 11 15 1000.4 1000.1 0.0
07/06:30pm 23.5 19.7 5.9 32 9.0 WNW 15 20 8 11 1000.3 1000.0 0.0
07/06:00pm 23.8 18.9 5.2 30 9.4 WNW 20 30 11 16 1000.6 1000.3 0.0
07/05:30pm 24.3 19.5 5.6 30 9.5 NW 20 30 11 16 1000.5 1000.2 0.0
07/05:00pm 25.0 20.0 4.7 27 10.3 NW 20 28 11 15 1000.7 1000.4 0.0
07/04:30pm 25.7 20.4 4.8 26 10.6 NW 22 35 12 19 1000.7 1000.4 0.0
07/04:00pm 26.1 21.6 6.2 28 10.4 NW 19 26 10 14 1000.9 1000.6 0.0
07/03:30pm 26.4 21.2 5.4 26 10.8 NW 22 32 12 17 1001.3 1001.0 0.0
07/03:00pm 27.8 23.5 7.1 27 11.1 WNW 19 26 10 14 1001.6 1001.3 0.0
07/02:30pm 27.2 22.5 6.0 26 11.1 WNW 20 28 11 15 1001.9 1001.6 0.0

Latest Capital City Observations: Canberra | Sydney | Melbourne | Brisbane | Adelaide | Perth | Hobart | Darwin

Other formats

Comma delimited format used in spreadsheet applications
http://www.bom.gov.au/fwo/IDN60903/IDN60903.94750.axf

JavaScript Object Notation format (JSON) in row-major order
http://www.bom.gov.au/fwo/IDN60903/IDN60903.94750.json

Data quality

Most of these data are generated automatically and are frequently updated. Quality checks on data are not normally performed. It is possible for incorrect values to appear. Refer to information at About Latest Weather Observations and please check the disclaimer before using these data.